createdAt,value
2022-08-25T00:01:52.093Z,40.40
2022-08-25T00:04:39.365Z,40.50
2022-08-25T00:07:29.423Z,40.70
2022-08-25T00:10:16.857Z,40.70
2022-08-25T00:13:06.853Z,40.90
2022-08-25T00:15:54.061Z,40.90
2022-08-25T00:18:45.112Z,40.80
2022-08-25T00:21:33.447Z,41.00
2022-08-25T00:24:23.199Z,41.10
2022-08-25T00:27:12.645Z,41.50
2022-08-25T00:30:00.311Z,41.30
2022-08-25T00:32:55.096Z,41.30
2022-08-25T00:35:45.175Z,41.60
2022-08-25T00:38:32.574Z,41.50
2022-08-25T00:41:25.803Z,41.80
2022-08-25T00:44:17.470Z,42.10
2022-08-25T00:47:07.475Z,42.10
2022-08-25T00:49:58.904Z,42.20
2022-08-25T00:52:51.318Z,42.30
2022-08-25T00:55:41.058Z,42.30
2022-08-25T00:58:32.824Z,42.40
2022-08-25T01:01:20.400Z,42.60
2022-08-25T01:04:08.380Z,42.70
2022-08-25T01:06:57.676Z,42.70
2022-08-25T01:09:47.805Z,42.80
2022-08-25T01:12:35.067Z,43.10
2022-08-25T01:15:24.916Z,42.90
2022-08-25T01:18:12.116Z,43.40
2022-08-25T01:21:01.421Z,43.20
2022-08-25T01:23:50.319Z,43.60
2022-08-25T01:26:38.092Z,43.40
2022-08-25T01:29:26.407Z,43.40
2022-08-25T01:32:15.790Z,43.30
2022-08-25T01:35:03.099Z,43.60
2022-08-25T01:37:51.822Z,43.80
2022-08-25T01:40:40.968Z,43.90
2022-08-25T01:43:38.101Z,44.00
2022-08-25T01:46:25.407Z,44.40
2022-08-25T01:49:13.026Z,44.10
2022-08-25T01:52:06.798Z,44.20
2022-08-25T01:54:55.310Z,44.40
2022-08-25T01:57:42.410Z,44.40
2022-08-25T02:00:29.881Z,44.30
2022-08-25T02:03:19.915Z,44.30
2022-08-25T02:06:08.846Z,44.40
2022-08-25T02:09:01.126Z,44.40
2022-08-25T02:11:50.014Z,44.50
2022-08-25T02:14:37.939Z,44.60
2022-08-25T02:17:25.418Z,44.50
2022-08-25T02:20:13.039Z,44.70
2022-08-25T02:23:00.465Z,44.70
2022-08-25T02:25:47.489Z,44.80
2022-08-25T02:28:37.155Z,44.70
2022-08-25T02:31:27.031Z,45.00
2022-08-25T02:34:15.247Z,45.00
2022-08-25T02:37:02.552Z,44.80
2022-08-25T02:39:50.279Z,45.00
2022-08-25T02:42:37.520Z,45.10
2022-08-25T02:45:26.029Z,45.20
2022-08-25T02:48:13.603Z,45.30
2022-08-25T02:51:02.586Z,45.60
2022-08-25T02:53:49.986Z,45.20
2022-08-25T02:56:37.504Z,45.20
2022-08-25T02:59:24.888Z,45.20
2022-08-25T03:02:13.569Z,45.40
2022-08-25T03:05:00.830Z,45.50
2022-08-25T03:07:48.281Z,45.50
2022-08-25T03:10:36.658Z,45.50
2022-08-25T03:13:24.000Z,45.60
2022-08-25T03:16:12.343Z,45.50
2022-08-25T03:19:02.163Z,45.60
2022-08-25T03:21:52.439Z,45.80
2022-08-25T03:24:39.512Z,45.60
2022-08-25T03:27:25.919Z,45.70
2022-08-25T03:30:14.364Z,45.90
2022-08-25T03:33:01.618Z,45.90
2022-08-25T03:35:50.184Z,45.90
2022-08-25T03:38:38.444Z,46.00
2022-08-25T03:41:29.679Z,46.00
2022-08-25T03:44:19.286Z,46.00
2022-08-25T03:47:07.710Z,46.00
2022-08-25T03:49:54.807Z,46.00
2022-08-25T03:52:43.716Z,46.00
2022-08-25T03:55:31.236Z,46.10
2022-08-25T03:58:20.415Z,46.10
2022-08-25T04:01:07.778Z,46.00
2022-08-25T04:03:55.511Z,46.10
2022-08-25T04:06:44.343Z,46.70
2022-08-25T04:09:36.757Z,46.20
2022-08-25T04:12:24.920Z,46.30
2022-08-25T04:15:12.880Z,46.30
2022-08-25T04:18:00.348Z,46.20
2022-08-25T04:20:48.441Z,46.30
2022-08-25T04:23:35.796Z,46.40
2022-08-25T04:26:27.187Z,46.40
2022-08-25T04:29:17.370Z,46.70
2022-08-25T04:32:05.413Z,46.50
2022-08-25T04:34:53.107Z,46.40
2022-08-25T04:37:40.659Z,46.50
2022-08-25T04:40:29.090Z,46.50
2022-08-25T04:43:18.128Z,46.50
2022-08-25T04:46:08.416Z,46.70
2022-08-25T04:48:58.300Z,46.80
2022-08-25T04:51:46.996Z,46.70
2022-08-25T04:54:37.026Z,46.80
2022-08-25T04:57:24.771Z,46.90
2022-08-25T05:00:15.413Z,46.80
2022-08-25T05:03:02.842Z,47.00
2022-08-25T05:05:53.388Z,46.80
2022-08-25T05:08:40.798Z,46.90
2022-08-25T05:11:28.333Z,47.00
2022-08-25T05:14:18.270Z,47.10
2022-08-25T05:17:07.114Z,47.20
2022-08-25T05:19:54.151Z,47.50
2022-08-25T05:22:42.672Z,47.50
2022-08-25T05:25:30.000Z,47.60
2022-08-25T05:28:17.938Z,47.60
2022-08-25T05:31:06.498Z,47.80
2022-08-25T05:33:57.544Z,47.90
2022-08-25T05:36:44.610Z,48.10
2022-08-25T05:39:33.885Z,48.00
2022-08-25T05:42:22.514Z,48.00
2022-08-25T05:45:14.337Z,48.10
2022-08-25T05:48:07.718Z,48.20
2022-08-25T05:50:59.908Z,48.10
2022-08-25T05:53:50.069Z,48.40
2022-08-25T05:56:37.701Z,48.20
2022-08-25T05:59:25.074Z,48.10
2022-08-25T06:02:30.605Z,48.20
2022-08-25T06:05:21.707Z,48.20
2022-08-25T06:08:11.077Z,48.50
2022-08-25T06:10:58.314Z,48.60
2022-08-25T06:13:46.020Z,48.40
2022-08-25T06:16:33.249Z,48.60
2022-08-25T06:19:21.267Z,48.60
2022-08-25T06:22:08.782Z,48.60
2022-08-25T06:24:57.604Z,48.60
2022-08-25T06:27:44.927Z,48.80
2022-08-25T06:30:32.127Z,48.90
2022-08-25T06:33:19.596Z,49.10
2022-08-25T06:36:07.699Z,49.10
2022-08-25T06:38:54.948Z,49.10
2022-08-25T06:41:43.948Z,49.30
2022-08-25T06:44:31.382Z,49.40
2022-08-25T06:47:19.313Z,49.20
2022-08-25T06:50:07.471Z,49.20
2022-08-25T06:52:54.683Z,49.20
2022-08-25T06:55:41.997Z,49.30
2022-08-25T06:58:30.471Z,49.40
2022-08-25T07:01:22.225Z,49.40
2022-08-25T07:04:12.885Z,49.40
2022-08-25T07:07:00.821Z,49.30
2022-08-25T07:09:48.342Z,49.30
2022-08-25T07:12:35.844Z,49.60
2022-08-25T07:15:24.534Z,49.40
2022-08-25T07:18:12.886Z,49.50
2022-08-25T07:21:00.831Z,49.30
2022-08-25T07:23:48.714Z,49.20
2022-08-25T07:26:38.622Z,49.10
2022-08-25T07:29:31.907Z,49.30
2022-08-25T07:32:21.485Z,49.10
2022-08-25T07:35:19.573Z,49.30
2022-08-25T07:38:10.251Z,49.30
2022-08-25T07:41:04.052Z,49.40
2022-08-25T07:43:51.332Z,49.40
2022-08-25T07:46:39.134Z,49.30
2022-08-25T07:49:35.733Z,49.30
2022-08-25T07:52:26.823Z,49.60
2022-08-25T07:55:17.999Z,49.50
2022-08-25T07:58:08.205Z,49.60
2022-08-25T08:00:55.540Z,49.70
2022-08-25T08:03:50.586Z,49.70
2022-08-25T08:06:41.666Z,49.70
2022-08-25T08:09:31.348Z,49.60
2022-08-25T08:12:19.120Z,49.50
2022-08-25T08:15:10.168Z,49.70
2022-08-25T08:17:58.095Z,49.10
2022-08-25T08:20:47.104Z,49.00
2022-08-25T08:23:35.608Z,49.10
2022-08-25T08:26:36.338Z,49.00
2022-08-25T08:29:30.869Z,48.70
2022-08-25T08:32:19.033Z,48.90
2022-08-25T08:35:08.053Z,48.80
2022-08-25T08:37:55.486Z,48.60
2022-08-25T08:41:12.945Z,48.70
2022-08-25T08:44:08.909Z,48.70
2022-08-25T08:47:09.071Z,48.70
2022-08-25T08:50:05.056Z,48.60
2022-08-25T08:53:02.088Z,48.40
2022-08-25T08:55:56.165Z,48.50
2022-08-25T08:58:49.881Z,48.40
2022-08-25T09:01:47.834Z,48.20
2022-08-25T09:04:46.957Z,48.20
2022-08-25T09:07:42.193Z,48.10
2022-08-25T09:10:43.209Z,48.20
2022-08-25T09:13:46.282Z,48.00
2022-08-25T09:16:58.864Z,47.80
2022-08-25T09:20:18.790Z,47.70
2022-08-25T09:23:22.518Z,47.60
2022-08-25T09:26:30.064Z,47.30
2022-08-25T09:29:25.383Z,47.50
2022-08-25T09:32:12.930Z,47.80
2022-08-25T09:35:04.373Z,47.60
2022-08-25T09:38:00.024Z,47.90
2022-08-25T09:40:50.330Z,47.60
2022-08-25T09:43:43.157Z,47.60
2022-08-25T09:46:31.857Z,47.50
2022-08-25T09:49:18.918Z,47.20
2022-08-25T09:52:33.145Z,47.30
2022-08-25T09:55:32.414Z,47.30
2022-08-25T09:58:24.154Z,47.70
2022-08-25T10:01:17.958Z,47.20
2022-08-25T10:04:13.931Z,47.00
2022-08-25T10:07:25.506Z,47.00
2022-08-25T10:10:24.889Z,46.80
2022-08-25T10:13:16.294Z,46.70
2022-08-25T10:16:25.229Z,46.30
2022-08-25T10:19:25.258Z,46.80
2022-08-25T10:22:25.020Z,47.20
2022-08-25T10:25:16.214Z,47.10
2022-08-25T10:28:15.093Z,47.10
2022-08-25T10:31:14.344Z,46.70
2022-08-25T10:34:19.892Z,46.70
2022-08-25T10:37:19.280Z,45.20
2022-08-25T10:40:22.919Z,44.60
2022-08-25T10:43:23.804Z,44.70
2022-08-25T10:46:24.490Z,44.00
2022-08-25T10:49:21.383Z,43.60
2022-08-25T10:52:16.679Z,43.60
2022-08-25T10:55:15.050Z,43.30
2022-08-25T10:58:14.914Z,43.30
2022-08-25T11:01:17.361Z,43.70
2022-08-25T11:04:11.785Z,43.50
2022-08-25T11:07:05.832Z,44.20
2022-08-25T11:10:01.793Z,43.40
2022-08-25T11:12:57.599Z,43.40
2022-08-25T11:16:15.863Z,43.40
2022-08-25T11:19:10.859Z,43.30
2022-08-25T11:22:08.540Z,43.50
2022-08-25T11:25:11.269Z,43.60
2022-08-25T11:28:05.390Z,43.60
2022-08-25T11:30:54.458Z,43.70
2022-08-25T11:33:42.011Z,43.80
2022-08-25T11:36:33.464Z,43.90
2022-08-25T11:39:41.247Z,43.90
2022-08-25T11:42:44.176Z,44.00
2022-08-25T11:45:56.371Z,43.90
2022-08-25T11:48:57.380Z,44.00
2022-08-25T11:51:48.727Z,43.90
2022-08-25T11:54:44.696Z,44.00
2022-08-25T11:57:33.488Z,44.00
2022-08-25T12:00:40.961Z,44.10
2022-08-25T12:03:54.063Z,43.80
2022-08-25T12:07:27.604Z,43.80
2022-08-25T12:10:20.978Z,44.60
2022-08-25T12:13:42.997Z,44.10
2022-08-25T12:17:00.426Z,44.00
2022-08-25T12:19:58.975Z,43.80
2022-08-25T12:23:01.029Z,43.80
2022-08-25T12:25:54.739Z,43.90
2022-08-25T12:29:01.137Z,43.80
2022-08-25T12:32:07.036Z,43.70
2022-08-25T12:35:29.838Z,43.80
2022-08-25T12:38:30.114Z,43.70
2022-08-25T12:41:24.347Z,43.40
2022-08-25T12:44:41.572Z,43.30
2022-08-25T12:47:33.868Z,43.40
2022-08-25T12:50:40.516Z,43.20
2022-08-25T12:53:37.395Z,43.30
2022-08-25T12:56:35.088Z,43.20
2022-08-25T12:59:37.104Z,43.30
2022-08-25T13:03:00.249Z,43.20
2022-08-25T13:06:48.405Z,43.30
2022-08-25T13:10:18.126Z,43.40
2022-08-25T13:13:12.801Z,43.10
2022-08-25T13:16:03.619Z,42.90
2022-08-25T13:18:51.887Z,43.10
2022-08-25T13:21:41.672Z,43.10
2022-08-25T13:24:31.930Z,43.00
2022-08-25T13:27:29.789Z,42.80
2022-08-25T13:30:27.639Z,42.70
2022-08-25T13:33:21.837Z,42.60
2022-08-25T13:36:35.695Z,42.70
2022-08-25T13:39:52.710Z,42.50
2022-08-25T13:42:33.420Z,42.60
2022-08-25T13:45:24.607Z,42.60
2022-08-25T13:48:13.793Z,42.40
2022-08-25T13:51:21.524Z,42.50
2022-08-25T13:54:21.010Z,42.50
2022-08-25T13:57:18.428Z,42.40
2022-08-25T14:00:10.384Z,42.30
2022-08-25T14:02:59.911Z,42.10
2022-08-25T14:05:47.557Z,41.90
2022-08-25T14:08:38.521Z,41.90
2022-08-25T14:11:33.390Z,42.00
2022-08-25T14:14:36.149Z,41.80
2022-08-25T14:17:39.064Z,41.90
2022-08-25T14:20:31.330Z,41.80
2022-08-25T14:23:24.193Z,41.60
2022-08-25T14:26:11.982Z,41.80
2022-08-25T14:28:59.242Z,42.10
2022-08-25T14:31:47.794Z,41.90
2022-08-25T14:34:38.420Z,41.90
2022-08-25T14:37:32.434Z,41.70
2022-08-25T14:40:20.140Z,41.60
2022-08-25T14:43:09.688Z,42.00
2022-08-25T14:45:57.448Z,41.80
2022-08-25T14:48:48.948Z,41.60
2022-08-25T14:51:37.507Z,41.80
2022-08-25T14:54:28.963Z,42.00
2022-08-25T14:57:16.437Z,42.10
2022-08-25T15:00:05.435Z,41.90
2022-08-25T15:02:57.543Z,41.80
2022-08-25T15:05:45.566Z,41.80
2022-08-25T15:08:49.994Z,41.80
2022-08-25T15:11:41.809Z,41.70
2022-08-25T15:14:33.435Z,41.80
2022-08-25T15:17:20.693Z,41.60
2022-08-25T15:20:09.422Z,41.60
2022-08-25T15:22:58.743Z,41.70
2022-08-25T15:25:49.033Z,41.60
2022-08-25T15:28:44.706Z,41.50
2022-08-25T15:31:31.929Z,41.50
2022-08-25T15:34:20.490Z,41.40
2022-08-25T15:37:10.938Z,41.30
2022-08-25T15:39:58.328Z,41.30
2022-08-25T15:42:45.835Z,41.00
2022-08-25T15:45:36.263Z,40.90
2022-08-25T15:48:23.367Z,40.90
2022-08-25T15:51:12.301Z,40.90
2022-08-25T15:54:00.215Z,41.00
2022-08-25T15:56:48.077Z,41.00
2022-08-25T15:59:35.383Z,41.00
2022-08-25T16:02:24.647Z,41.10
2022-08-25T16:05:12.359Z,41.10
2022-08-25T16:08:00.747Z,41.00
2022-08-25T16:10:49.869Z,41.00
2022-08-25T16:13:36.851Z,41.00
2022-08-25T16:16:32.407Z,40.90
2022-08-25T16:19:20.979Z,41.00
2022-08-25T16:22:08.933Z,41.00
2022-08-25T16:24:58.458Z,41.10
2022-08-25T16:27:46.593Z,41.40
2022-08-25T16:30:33.623Z,41.40
2022-08-25T16:33:22.782Z,41.20
2022-08-25T16:36:14.553Z,41.20
2022-08-25T16:39:02.056Z,41.30
2022-08-25T16:41:49.559Z,41.30
2022-08-25T16:44:39.916Z,41.30
2022-08-25T16:47:27.858Z,41.20
2022-08-25T16:50:17.017Z,41.10
2022-08-25T16:53:23.969Z,41.10
2022-08-25T16:56:11.647Z,41.10
2022-08-25T16:59:00.633Z,41.10
2022-08-25T17:01:48.147Z,41.00
2022-08-25T17:04:35.672Z,41.00
2022-08-25T17:07:24.738Z,41.00
2022-08-25T17:10:13.583Z,41.10
2022-08-25T17:13:00.605Z,41.00
2022-08-25T17:15:52.417Z,40.90
2022-08-25T17:18:40.620Z,40.80
2022-08-25T17:21:32.457Z,40.70
2022-08-25T17:24:20.208Z,40.70
2022-08-25T17:27:09.737Z,40.70
2022-08-25T17:29:58.084Z,40.70
2022-08-25T17:32:45.701Z,40.80
2022-08-25T17:35:41.390Z,40.90
2022-08-25T17:38:30.232Z,40.70
2022-08-25T17:41:20.743Z,40.80
2022-08-25T17:44:09.362Z,41.00
2022-08-25T17:46:57.398Z,40.90
2022-08-25T17:49:44.363Z,41.10
2022-08-25T17:52:31.811Z,41.00
2022-08-25T17:55:21.839Z,41.20
2022-08-25T17:58:09.894Z,41.20
2022-08-25T18:01:00.519Z,41.30
2022-08-25T18:03:47.665Z,41.30
2022-08-25T18:06:35.168Z,41.30
2022-08-25T18:09:22.673Z,41.50
2022-08-25T18:12:09.836Z,41.80
2022-08-25T18:14:59.163Z,41.80
2022-08-25T18:17:48.312Z,41.70
2022-08-25T18:20:36.267Z,42.00
2022-08-25T18:23:25.295Z,42.00
2022-08-25T18:26:14.035Z,42.00
2022-08-25T18:29:01.611Z,42.60
2022-08-25T18:31:49.051Z,42.90
2022-08-25T18:34:38.501Z,42.90
2022-08-25T18:37:43.425Z,43.00
2022-08-25T18:40:33.003Z,43.40
2022-08-25T18:43:21.404Z,43.60
2022-08-25T18:46:09.985Z,43.40
2022-08-25T18:48:57.125Z,43.20
2022-08-25T18:51:46.169Z,43.40
2022-08-25T18:54:33.475Z,43.40
2022-08-25T18:57:23.555Z,43.40
2022-08-25T19:00:15.874Z,43.40
2022-08-25T19:03:03.224Z,43.70
2022-08-25T19:05:53.952Z,43.50
2022-08-25T19:08:46.527Z,43.60
2022-08-25T19:11:34.459Z,43.70
2022-08-25T19:14:21.482Z,43.70
2022-08-25T19:17:09.749Z,43.90
2022-08-25T19:19:58.698Z,43.80
2022-08-25T19:22:45.907Z,44.00
2022-08-25T19:25:34.684Z,44.10
2022-08-25T19:28:22.085Z,44.20
2022-08-25T19:31:09.925Z,44.10
2022-08-25T19:33:58.756Z,44.10
2022-08-25T19:36:46.941Z,44.20
2022-08-25T19:39:39.129Z,44.20
2022-08-25T19:42:35.085Z,44.30
2022-08-25T19:45:25.335Z,44.30
2022-08-25T19:48:14.041Z,44.30
2022-08-25T19:51:01.682Z,44.30
2022-08-25T19:53:53.619Z,44.50
2022-08-25T19:56:54.825Z,44.60
2022-08-25T19:59:47.309Z,44.40
2022-08-25T20:02:36.764Z,44.70
2022-08-25T20:05:24.880Z,44.50
2022-08-25T20:08:12.409Z,44.60
2022-08-25T20:10:59.941Z,44.80
2022-08-25T20:13:47.051Z,44.90
2022-08-25T20:16:38.655Z,44.90
2022-08-25T20:19:25.863Z,45.10
2022-08-25T20:22:17.757Z,45.20
2022-08-25T20:25:13.377Z,45.40
2022-08-25T20:28:01.646Z,45.60
2022-08-25T20:30:49.162Z,45.40
2022-08-25T20:33:38.018Z,45.20
2022-08-25T20:36:27.352Z,45.20
2022-08-25T20:39:14.759Z,45.10
2022-08-25T20:42:02.640Z,45.30
2022-08-25T20:44:50.210Z,45.20
2022-08-25T20:47:37.797Z,45.40
2022-08-25T20:50:27.445Z,45.40
2022-08-25T20:53:15.327Z,45.60
2022-08-25T20:56:03.019Z,45.60
2022-08-25T20:58:50.259Z,45.50
2022-08-25T21:01:42.327Z,45.50
2022-08-25T21:04:31.536Z,45.60
2022-08-25T21:07:20.245Z,45.60
2022-08-25T21:10:10.222Z,45.80
2022-08-25T21:12:58.239Z,45.60
2022-08-25T21:15:48.548Z,45.70
2022-08-25T21:18:37.523Z,46.50
2022-08-25T21:21:26.157Z,45.70
2022-08-25T21:24:15.466Z,45.80
2022-08-25T21:27:03.735Z,45.90
2022-08-25T21:29:55.028Z,45.90
2022-08-25T21:32:53.123Z,45.90
2022-08-25T21:35:42.893Z,45.90
2022-08-25T21:38:30.425Z,45.90
2022-08-25T21:41:23.000Z,45.90
2022-08-25T21:44:11.534Z,46.00
2022-08-25T21:46:58.668Z,46.00
2022-08-25T21:49:46.019Z,46.00
2022-08-25T21:52:33.163Z,46.00
2022-08-25T21:55:20.743Z,46.10
2022-08-25T21:58:10.707Z,46.00
2022-08-25T22:00:57.817Z,46.10
2022-08-25T22:03:47.087Z,46.00
2022-08-25T22:06:35.236Z,46.10
2022-08-25T22:09:22.875Z,46.20
2022-08-25T22:12:11.108Z,46.10
2022-08-25T22:14:59.594Z,46.20
2022-08-25T22:17:48.026Z,46.30
2022-08-25T22:20:35.815Z,46.30
2022-08-25T22:23:28.186Z,46.40
2022-08-25T22:26:16.876Z,46.40
2022-08-25T22:29:09.507Z,46.40
2022-08-25T22:32:02.042Z,46.40
2022-08-25T22:34:49.919Z,46.50
2022-08-25T22:37:37.237Z,46.50
2022-08-25T22:40:24.535Z,46.60
2022-08-25T22:43:11.722Z,46.60
2022-08-25T22:46:03.122Z,46.60
2022-08-25T22:48:52.124Z,46.80
2022-08-25T22:51:39.841Z,46.80
2022-08-25T22:54:27.221Z,46.80
2022-08-25T22:57:14.481Z,47.50
2022-08-25T23:00:01.594Z,46.90
2022-08-25T23:02:53.207Z,46.90
2022-08-25T23:05:42.319Z,47.00
2022-08-25T23:08:39.397Z,47.10
2022-08-25T23:11:29.058Z,47.10
2022-08-25T23:14:16.913Z,47.20
2022-08-25T23:17:07.568Z,47.00
2022-08-25T23:19:55.090Z,47.10
2022-08-25T23:22:43.056Z,47.10
2022-08-25T23:25:30.215Z,47.10
2022-08-25T23:28:17.769Z,47.20
2022-08-25T23:31:08.642Z,47.10
2022-08-25T23:33:59.399Z,47.20
2022-08-25T23:36:49.872Z,47.10
2022-08-25T23:39:40.788Z,47.20
2022-08-25T23:42:28.385Z,47.30
2022-08-25T23:45:15.956Z,47.30
2022-08-25T23:48:04.483Z,47.20
2022-08-25T23:50:54.179Z,47.20
2022-08-25T23:53:41.601Z,47.30
2022-08-25T23:56:30.963Z,47.30
2022-08-25T23:59:18.620Z,47.50
